createdAt,value
2022-12-12T00:00:32.133Z,94
2022-12-12T00:01:32.092Z,93
2022-12-12T00:02:32.218Z,93
2022-12-12T00:03:32.247Z,93
2022-12-12T00:04:32.070Z,93
2022-12-12T00:05:32.093Z,93
2022-12-12T00:06:32.131Z,93
2022-12-12T00:07:32.109Z,93
2022-12-12T00:08:32.187Z,93
2022-12-12T00:09:32.079Z,93
2022-12-12T00:10:32.134Z,93
2022-12-12T00:11:32.115Z,93
2022-12-12T00:12:32.106Z,93
2022-12-12T00:13:32.121Z,93
2022-12-12T00:14:32.112Z,93
2022-12-12T00:15:32.215Z,93
2022-12-12T00:16:32.083Z,93
2022-12-12T00:17:32.084Z,93
2022-12-12T00:18:32.105Z,93
2022-12-12T00:19:32.129Z,93
2022-12-12T00:20:32.130Z,93
2022-12-12T00:21:32.074Z,93
2022-12-12T00:22:32.057Z,93
2022-12-12T00:23:32.135Z,93
2022-12-12T00:24:32.134Z,93
2022-12-12T00:25:32.098Z,93
2022-12-12T00:26:32.120Z,93
2022-12-12T00:27:32.121Z,93
2022-12-12T00:28:32.118Z,93
2022-12-12T00:29:32.124Z,93
2022-12-12T00:30:32.073Z,92
2022-12-12T00:31:32.195Z,92
2022-12-12T00:32:32.153Z,92
2022-12-12T00:33:32.100Z,92
2022-12-12T00:34:32.071Z,92
2022-12-12T00:35:32.122Z,92
2022-12-12T00:36:32.102Z,92
2022-12-12T00:37:32.056Z,92
2022-12-12T00:38:32.088Z,92
2022-12-12T00:39:32.155Z,92
2022-12-12T00:40:32.105Z,91
2022-12-12T00:41:32.078Z,91
2022-12-12T00:42:32.095Z,91
2022-12-12T00:43:32.112Z,91
2022-12-12T00:44:32.112Z,91
2022-12-12T00:45:32.080Z,91
2022-12-12T00:46:32.133Z,91
2022-12-12T00:47:32.113Z,91
2022-12-12T00:48:32.103Z,91
2022-12-12T00:49:32.071Z,91
2022-12-12T00:50:32.217Z,90
2022-12-12T00:51:32.102Z,90
2022-12-12T00:52:32.130Z,90
2022-12-12T00:53:32.067Z,90
2022-12-12T00:54:32.062Z,90
2022-12-12T00:55:32.104Z,90
2022-12-12T00:56:32.135Z,90
2022-12-12T00:57:32.117Z,90
2022-12-12T00:58:32.073Z,90
2022-12-12T00:59:32.102Z,89
2022-12-12T01:00:32.106Z,89
2022-12-12T01:01:32.139Z,89
2022-12-12T01:02:32.192Z,90
2022-12-12T01:03:32.107Z,90
2022-12-12T01:04:32.133Z,90
2022-12-12T01:05:32.083Z,90
2022-12-12T01:06:32.114Z,90
2022-12-12T01:07:32.111Z,90
2022-12-12T01:08:32.238Z,90
2022-12-12T01:09:32.076Z,90
2022-12-12T01:10:32.158Z,90
2022-12-12T01:11:32.113Z,90
2022-12-12T01:12:32.122Z,90
2022-12-12T01:13:32.100Z,90
2022-12-12T01:14:32.100Z,91
2022-12-12T01:15:32.162Z,91
2022-12-12T01:16:32.191Z,91
2022-12-12T01:17:32.097Z,91
2022-12-12T01:18:32.120Z,91
2022-12-12T01:19:32.110Z,91
2022-12-12T01:20:32.091Z,91
2022-12-12T01:21:32.096Z,91
2022-12-12T01:22:32.197Z,91
2022-12-12T01:23:32.191Z,91
2022-12-12T01:24:32.079Z,91
2022-12-12T01:25:32.129Z,91
2022-12-12T01:26:32.081Z,91
2022-12-12T01:27:32.111Z,90
2022-12-12T01:28:32.094Z,90
2022-12-12T01:29:32.107Z,90
2022-12-12T01:30:32.105Z,90
2022-12-12T01:31:32.152Z,90
2022-12-12T01:32:32.084Z,90
2022-12-12T01:33:32.130Z,90
2022-12-12T01:34:32.088Z,90
2022-12-12T01:35:32.093Z,90
2022-12-12T01:36:32.088Z,90
2022-12-12T01:37:32.102Z,90
2022-12-12T01:38:32.247Z,90
2022-12-12T01:39:32.177Z,90
2022-12-12T01:40:32.195Z,90
2022-12-12T01:41:32.285Z,90
2022-12-12T01:42:32.287Z,90
2022-12-12T01:43:32.219Z,90
2022-12-12T01:44:32.184Z,90
2022-12-12T01:45:32.230Z,90
2022-12-12T01:46:32.302Z,90
2022-12-12T01:47:32.235Z,90
2022-12-12T01:48:32.191Z,90
2022-12-12T01:49:32.334Z,90
2022-12-12T01:50:32.145Z,90
2022-12-12T01:51:32.093Z,90
2022-12-12T01:52:32.072Z,90
2022-12-12T01:53:32.122Z,90
2022-12-12T01:54:32.126Z,90
2022-12-12T01:55:32.105Z,90
2022-12-12T01:56:32.091Z,90
2022-12-12T01:57:32.122Z,90
2022-12-12T01:58:32.084Z,90
2022-12-12T01:59:32.114Z,90
2022-12-12T02:00:32.278Z,90
2022-12-12T02:01:32.117Z,90
2022-12-12T02:02:32.175Z,90
2022-12-12T02:03:32.098Z,89
2022-12-12T02:04:32.148Z,89
2022-12-12T02:05:32.106Z,89
2022-12-12T02:06:32.116Z,89
2022-12-12T02:07:32.108Z,89
2022-12-12T02:08:32.067Z,89
2022-12-12T02:09:32.110Z,89
2022-12-12T02:10:32.061Z,89
2022-12-12T02:11:32.259Z,89
2022-12-12T02:12:32.093Z,89
2022-12-12T02:13:32.105Z,89
2022-12-12T02:14:32.073Z,89
2022-12-12T02:15:32.097Z,89
2022-12-12T02:16:32.197Z,89
2022-12-12T02:17:32.130Z,89
2022-12-12T02:18:32.048Z,89
2022-12-12T02:19:32.277Z,89
2022-12-12T02:20:32.108Z,89
2022-12-12T02:21:32.091Z,89
2022-12-12T02:22:32.099Z,89
2022-12-12T02:23:32.068Z,89
2022-12-12T02:24:32.108Z,89
2022-12-12T02:25:32.102Z,89
2022-12-12T02:26:32.089Z,88
2022-12-12T02:27:32.095Z,89
2022-12-12T02:28:32.109Z,88
2022-12-12T02:29:32.092Z,88
2022-12-12T02:30:32.125Z,88
2022-12-12T02:31:32.114Z,88
2022-12-12T02:32:32.180Z,88
2022-12-12T02:33:32.085Z,88
2022-12-12T02:34:32.093Z,88
2022-12-12T02:35:32.067Z,88
2022-12-12T02:36:32.104Z,88
2022-12-12T02:37:32.178Z,88
2022-12-12T02:38:32.085Z,88
2022-12-12T02:39:32.087Z,88
2022-12-12T02:40:32.134Z,88
2022-12-12T02:41:32.082Z,88
2022-12-12T02:42:32.088Z,88
2022-12-12T02:43:32.127Z,88
2022-12-12T02:44:32.112Z,88
2022-12-12T02:45:32.079Z,88
2022-12-12T02:46:32.165Z,88
2022-12-12T02:47:32.100Z,88
2022-12-12T02:48:32.100Z,88
2022-12-12T02:49:32.129Z,88
2022-12-12T02:50:32.113Z,88
2022-12-12T02:51:32.141Z,88
2022-12-12T02:52:32.174Z,88
2022-12-12T02:53:32.093Z,88
2022-12-12T02:54:32.163Z,88
2022-12-12T02:55:36.274Z,87
2022-12-12T02:56:32.203Z,88
2022-12-12T02:57:32.077Z,88
2022-12-12T02:58:32.184Z,88
2022-12-12T02:59:32.082Z,88
2022-12-12T03:00:32.164Z,88
2022-12-12T03:01:32.074Z,88
2022-12-12T03:02:32.090Z,88
2022-12-12T03:03:32.076Z,88
2022-12-12T03:04:32.088Z,88
2022-12-12T03:05:32.055Z,88
2022-12-12T03:06:34.031Z,88
2022-12-12T03:07:32.077Z,88
2022-12-12T03:08:32.142Z,88
2022-12-12T03:09:32.107Z,88
2022-12-12T03:10:32.197Z,88
2022-12-12T03:11:32.239Z,88
2022-12-12T03:12:32.275Z,88
2022-12-12T03:13:32.145Z,88
2022-12-12T03:14:32.153Z,88
2022-12-12T03:15:32.222Z,88
2022-12-12T03:16:32.191Z,88
2022-12-12T03:17:32.192Z,88
2022-12-12T03:18:32.087Z,88
2022-12-12T03:19:32.173Z,88
2022-12-12T03:20:32.153Z,88
2022-12-12T03:21:32.233Z,88
2022-12-12T03:22:32.228Z,88
2022-12-12T03:23:32.196Z,88
2022-12-12T03:24:32.132Z,88
2022-12-12T03:25:32.144Z,88
2022-12-12T03:26:32.222Z,88
2022-12-12T03:27:32.175Z,88
2022-12-12T03:28:32.245Z,88
2022-12-12T03:29:32.260Z,88
2022-12-12T03:30:32.432Z,88
2022-12-12T03:31:32.147Z,88
2022-12-12T03:32:32.203Z,88
2022-12-12T03:33:32.118Z,88
2022-12-12T03:34:32.067Z,88
2022-12-12T03:35:32.094Z,88
2022-12-12T03:36:32.053Z,88
2022-12-12T03:37:32.176Z,88
2022-12-12T03:38:32.085Z,88
2022-12-12T03:39:32.084Z,88
2022-12-12T03:40:32.187Z,88
2022-12-12T03:41:32.211Z,88
2022-12-12T03:42:32.107Z,88
2022-12-12T03:43:32.312Z,88
2022-12-12T03:44:34.486Z,88
2022-12-12T03:45:32.188Z,88
2022-12-12T03:46:32.058Z,88
2022-12-12T03:47:32.076Z,88
2022-12-12T03:48:32.080Z,88
2022-12-12T03:49:32.095Z,88
2022-12-12T03:50:32.103Z,87
2022-12-12T03:51:32.097Z,87
2022-12-12T03:52:32.086Z,87
2022-12-12T03:53:32.146Z,87
2022-12-12T03:54:32.070Z,87
2022-12-12T03:55:32.083Z,87
2022-12-12T03:56:32.213Z,87
2022-12-12T03:57:32.147Z,87
2022-12-12T03:58:32.093Z,87
2022-12-12T03:59:32.061Z,87
2022-12-12T04:00:32.105Z,87
2022-12-12T04:01:32.178Z,87
2022-12-12T04:02:32.142Z,87
2022-12-12T04:03:32.058Z,87
2022-12-12T04:04:32.218Z,87
2022-12-12T04:05:32.121Z,87
2022-12-12T04:06:32.072Z,87
2022-12-12T04:07:32.096Z,87
2022-12-12T04:08:32.088Z,87
2022-12-12T04:09:32.106Z,87
2022-12-12T04:10:32.194Z,87
2022-12-12T04:11:32.072Z,87
2022-12-12T04:12:32.085Z,87
2022-12-12T04:13:32.596Z,87
2022-12-12T04:14:32.071Z,87
2022-12-12T04:15:32.077Z,87
2022-12-12T04:16:32.190Z,87
2022-12-12T04:17:32.113Z,87
2022-12-12T04:18:32.093Z,87
2022-12-12T04:19:32.070Z,87
2022-12-12T04:20:32.092Z,87
2022-12-12T04:21:32.089Z,87
2022-12-12T04:22:32.081Z,87
2022-12-12T04:23:32.054Z,87
2022-12-12T04:24:32.077Z,87
2022-12-12T04:25:32.107Z,87
2022-12-12T04:26:32.125Z,87
2022-12-12T04:27:32.082Z,87
2022-12-12T04:28:32.096Z,87
2022-12-12T04:29:32.081Z,87
2022-12-12T04:30:32.111Z,87
2022-12-12T04:31:32.118Z,87
2022-12-12T04:32:32.062Z,87
2022-12-12T04:33:32.072Z,87
2022-12-12T04:34:32.350Z,87
2022-12-12T04:35:32.087Z,87
2022-12-12T04:36:32.088Z,87
2022-12-12T04:37:32.085Z,87
2022-12-12T04:38:32.102Z,87
2022-12-12T04:39:32.080Z,87
2022-12-12T04:40:32.059Z,87
2022-12-12T04:41:32.063Z,87
2022-12-12T04:42:32.127Z,86
2022-12-12T04:43:32.076Z,86
2022-12-12T04:44:32.107Z,86
2022-12-12T04:45:32.097Z,86
2022-12-12T04:46:32.086Z,86
2022-12-12T04:47:32.156Z,87
2022-12-12T04:48:35.716Z,87
2022-12-12T04:49:32.087Z,87
2022-12-12T04:50:32.102Z,87
2022-12-12T04:51:32.076Z,87
2022-12-12T04:52:32.094Z,87
2022-12-12T04:53:32.105Z,87
2022-12-12T04:54:32.092Z,87
2022-12-12T04:55:32.071Z,87
2022-12-12T04:56:32.058Z,87
2022-12-12T04:57:32.066Z,87
2022-12-12T04:58:32.099Z,87
2022-12-12T04:59:32.117Z,88
2022-12-12T05:00:32.076Z,88
2022-12-12T05:01:32.105Z,88
2022-12-12T05:02:33.175Z,88
2022-12-12T05:03:32.763Z,88
2022-12-12T05:04:36.808Z,88
2022-12-12T05:05:40.766Z,88
2022-12-12T05:06:44.735Z,88
2022-12-12T05:07:48.807Z,88
2022-12-12T05:08:52.692Z,88
2022-12-12T05:09:56.733Z,88
2022-12-12T05:11:00.867Z,88
2022-12-12T05:12:04.735Z,88
2022-12-12T05:13:08.696Z,88
2022-12-12T05:14:12.755Z,88
2022-12-12T05:15:16.729Z,88
2022-12-12T05:16:20.886Z,89
2022-12-12T05:17:24.702Z,89
2022-12-12T05:18:28.741Z,89
2022-12-12T05:19:32.078Z,89
2022-12-12T05:20:32.101Z,89
2022-12-12T05:21:32.052Z,89
2022-12-12T05:22:32.162Z,89
2022-12-12T05:23:34.804Z,89
2022-12-12T05:24:32.083Z,89
2022-12-12T05:25:32.096Z,89
2022-12-12T05:26:32.085Z,89
2022-12-12T05:27:32.135Z,89
2022-12-12T05:28:32.089Z,89
2022-12-12T05:29:32.062Z,89
2022-12-12T05:30:32.180Z,89
2022-12-12T05:31:32.182Z,89
2022-12-12T05:32:32.111Z,89
2022-12-12T05:33:32.061Z,89
2022-12-12T05:34:32.183Z,89
2022-12-12T05:35:32.038Z,89
2022-12-12T05:36:32.125Z,89
2022-12-12T05:37:32.060Z,89
2022-12-12T05:38:32.129Z,89
2022-12-12T05:39:32.140Z,88
2022-12-12T05:40:32.112Z,88
2022-12-12T05:41:32.057Z,88
2022-12-12T05:42:32.140Z,88
2022-12-12T05:43:32.084Z,88
2022-12-12T05:44:32.132Z,88
2022-12-12T05:45:32.042Z,88
2022-12-12T05:46:32.179Z,88
2022-12-12T05:47:32.078Z,88
2022-12-12T05:48:32.097Z,88
2022-12-12T05:49:32.076Z,88
2022-12-12T05:50:32.067Z,88
2022-12-12T05:51:32.078Z,87
2022-12-12T05:52:32.091Z,87
2022-12-12T05:53:33.506Z,87
2022-12-12T05:54:32.079Z,87
2022-12-12T05:55:32.098Z,87
2022-12-12T05:56:32.058Z,87
2022-12-12T05:57:32.076Z,87
2022-12-12T05:58:32.076Z,87
2022-12-12T05:59:32.102Z,86
2022-12-12T06:00:32.095Z,85
2022-12-12T06:01:32.084Z,85
2022-12-12T06:02:32.099Z,85
2022-12-12T06:03:32.108Z,84
2022-12-12T06:04:32.182Z,84
2022-12-12T06:05:32.072Z,84
2022-12-12T06:06:32.072Z,84
2022-12-12T06:07:32.083Z,84
2022-12-12T06:08:32.116Z,84
2022-12-12T06:09:32.132Z,83
2022-12-12T06:10:32.052Z,83
2022-12-12T06:11:32.095Z,83
2022-12-12T06:12:32.074Z,82
2022-12-12T06:13:32.074Z,82
2022-12-12T06:14:32.036Z,81
2022-12-12T06:15:32.208Z,80
2022-12-12T06:16:32.074Z,78
2022-12-12T06:17:33.453Z,78
2022-12-12T06:18:32.077Z,78
2022-12-12T06:19:32.095Z,79
2022-12-12T06:20:32.057Z,79
2022-12-12T06:21:32.078Z,80
2022-12-12T06:22:32.031Z,80
2022-12-12T06:23:32.105Z,80
2022-12-12T06:24:32.068Z,80
2022-12-12T06:25:32.094Z,80
2022-12-12T06:26:32.071Z,81
2022-12-12T06:27:32.096Z,81
2022-12-12T06:28:32.063Z,82
2022-12-12T06:29:32.086Z,83
2022-12-12T06:30:32.053Z,84
2022-12-12T06:31:32.142Z,84
2022-12-12T06:32:32.062Z,84
2022-12-12T06:33:32.068Z,85
2022-12-12T06:34:32.073Z,85
2022-12-12T06:35:32.204Z,86
2022-12-12T06:36:32.060Z,86
2022-12-12T06:37:32.091Z,86
2022-12-12T06:38:32.058Z,87
2022-12-12T06:39:32.076Z,87
2022-12-12T06:40:32.091Z,88
2022-12-12T06:41:32.091Z,88
2022-12-12T06:42:32.060Z,88
2022-12-12T06:43:32.106Z,88
2022-12-12T06:44:32.102Z,89
2022-12-12T06:45:32.060Z,89
2022-12-12T06:46:32.228Z,89
2022-12-12T06:47:32.143Z,89
2022-12-12T06:48:32.090Z,90
2022-12-12T06:49:32.108Z,90
2022-12-12T06:50:32.040Z,90
2022-12-12T06:51:32.071Z,90
2022-12-12T06:52:32.069Z,90
2022-12-12T06:53:32.057Z,90
2022-12-12T06:54:32.040Z,90
2022-12-12T06:55:32.194Z,90
2022-12-12T06:56:32.091Z,90
2022-12-12T06:57:32.084Z,90
2022-12-12T06:58:32.067Z,90
2022-12-12T06:59:32.067Z,90
2022-12-12T07:00:32.081Z,90
2022-12-12T07:01:32.177Z,90
2022-12-12T07:02:32.179Z,90
2022-12-12T07:03:32.177Z,90
2022-12-12T07:04:32.029Z,90
2022-12-12T07:05:32.058Z,90
2022-12-12T07:06:32.069Z,90
2022-12-12T07:07:32.085Z,91
2022-12-12T07:08:32.062Z,91
2022-12-12T07:09:32.059Z,91
2022-12-12T07:10:32.034Z,91
2022-12-12T07:11:32.076Z,91
2022-12-12T07:12:32.063Z,91
2022-12-12T07:13:32.073Z,91
2022-12-12T07:14:32.104Z,91
2022-12-12T07:15:32.168Z,91
2022-12-12T07:16:32.062Z,91
2022-12-12T07:17:32.060Z,91
2022-12-12T07:18:32.071Z,91
2022-12-12T07:19:32.084Z,91
2022-12-12T07:20:32.102Z,91
2022-12-12T07:21:32.133Z,91
2022-12-12T07:22:32.071Z,91
2022-12-12T07:23:32.137Z,91
2022-12-12T07:24:32.103Z,91
2022-12-12T07:25:32.253Z,92
2022-12-12T07:26:32.061Z,92
2022-12-12T07:27:32.051Z,92
2022-12-12T07:28:32.093Z,92
2022-12-12T07:29:32.086Z,92
2022-12-12T07:30:32.068Z,92
2022-12-12T07:31:32.158Z,92
2022-12-12T07:32:32.130Z,92
2022-12-12T07:33:41.299Z,92
2022-12-12T07:34:32.061Z,92
2022-12-12T07:35:32.123Z,92
2022-12-12T07:36:32.151Z,92
2022-12-12T07:37:32.063Z,92
2022-12-12T07:38:32.049Z,92
2022-12-12T07:39:32.052Z,92
2022-12-12T07:40:32.083Z,92
2022-12-12T07:41:32.113Z,92
2022-12-12T07:42:32.085Z,92
2022-12-12T07:43:33.127Z,93
2022-12-12T07:44:32.087Z,93
2022-12-12T07:45:32.158Z,93
2022-12-12T07:46:32.081Z,93
2022-12-12T07:47:32.070Z,93
2022-12-12T07:48:32.072Z,93
2022-12-12T07:49:32.199Z,92
2022-12-12T07:50:32.021Z,93
2022-12-12T07:51:32.056Z,92
2022-12-12T07:52:32.082Z,93
2022-12-12T07:53:32.077Z,93
2022-12-12T07:54:32.056Z,92
2022-12-12T07:55:32.075Z,92
2022-12-12T07:56:32.067Z,92
2022-12-12T07:57:32.068Z,92
2022-12-12T07:58:32.074Z,92
2022-12-12T07:59:32.086Z,92
2022-12-12T08:00:32.128Z,92
2022-12-12T08:01:32.123Z,92
2022-12-12T08:02:32.108Z,92
2022-12-12T08:03:32.072Z,92
2022-12-12T08:04:32.075Z,92
2022-12-12T08:05:32.082Z,92
2022-12-12T08:06:32.033Z,92
2022-12-12T08:07:32.147Z,92
2022-12-12T08:08:32.160Z,92
2022-12-12T08:09:32.046Z,92
2022-12-12T08:10:32.064Z,92
2022-12-12T08:11:32.070Z,92
2022-12-12T08:12:32.083Z,92
2022-12-12T08:13:32.955Z,92
2022-12-12T08:14:44.789Z,92
2022-12-12T08:15:48.827Z,92
2022-12-12T08:16:52.777Z,92
2022-12-12T08:17:56.769Z,92
2022-12-12T08:19:00.771Z,92
2022-12-12T08:20:04.863Z,92
2022-12-12T08:21:08.756Z,92
2022-12-12T08:22:12.871Z,92
2022-12-12T08:23:16.812Z,92
2022-12-12T08:24:21.090Z,92
2022-12-12T08:25:24.768Z,92
2022-12-12T08:26:28.826Z,92
2022-12-12T08:27:32.077Z,92
2022-12-12T08:28:32.060Z,92
2022-12-12T08:29:32.071Z,92
2022-12-12T08:30:32.060Z,92
2022-12-12T08:31:32.160Z,92
2022-12-12T08:32:32.059Z,92
2022-12-12T08:33:32.043Z,92
2022-12-12T08:34:32.051Z,92
2022-12-12T08:35:32.059Z,92
2022-12-12T08:36:32.069Z,92
2022-12-12T08:37:32.027Z,92
2022-12-12T08:38:32.127Z,92
2022-12-12T08:39:32.086Z,92
2022-12-12T08:40:32.059Z,92
2022-12-12T08:41:32.097Z,92
2022-12-12T08:42:32.057Z,92
2022-12-12T08:43:32.096Z,92
2022-12-12T08:44:32.072Z,92
2022-12-12T08:45:32.036Z,92
2022-12-12T08:46:32.129Z,92
2022-12-12T08:47:32.096Z,92
2022-12-12T08:48:32.049Z,92
2022-12-12T08:49:32.057Z,92
2022-12-12T08:50:32.116Z,92
2022-12-12T08:51:32.086Z,92
2022-12-12T08:52:32.074Z,92
2022-12-12T08:53:32.036Z,92
2022-12-12T08:54:32.082Z,92
2022-12-12T08:55:32.068Z,92
2022-12-12T08:56:32.079Z,91
2022-12-12T08:57:32.048Z,91
2022-12-12T08:58:32.058Z,91
2022-12-12T08:59:32.086Z,91
2022-12-12T09:00:32.136Z,92
2022-12-12T09:01:32.136Z,92
2022-12-12T09:02:32.268Z,91
2022-12-12T09:03:32.091Z,91
2022-12-12T09:04:32.129Z,92
2022-12-12T09:05:32.076Z,91
2022-12-12T09:06:32.102Z,92
2022-12-12T09:07:32.097Z,92
2022-12-12T09:08:32.114Z,92
2022-12-12T09:09:32.053Z,92
2022-12-12T09:10:32.066Z,92
2022-12-12T09:11:32.161Z,92
2022-12-12T09:12:34.576Z,92
2022-12-12T09:13:32.055Z,92
2022-12-12T09:14:32.064Z,92
2022-12-12T09:15:32.127Z,92
2022-12-12T09:16:32.169Z,92
2022-12-12T09:17:32.059Z,92
2022-12-12T09:18:32.058Z,92
2022-12-12T09:19:32.101Z,92
2022-12-12T09:20:32.067Z,92
2022-12-12T09:21:32.130Z,92
2022-12-12T09:22:32.053Z,92
2022-12-12T09:23:32.066Z,92
2022-12-12T09:24:32.075Z,92
2022-12-12T09:25:32.193Z,92
2022-12-12T09:26:32.061Z,92
2022-12-12T09:27:32.074Z,92
2022-12-12T09:28:32.042Z,92
2022-12-12T09:29:32.110Z,92
2022-12-12T09:30:32.042Z,92
2022-12-12T09:31:32.090Z,92
2022-12-12T09:32:32.057Z,92
2022-12-12T09:33:32.085Z,92
2022-12-12T09:34:32.043Z,92
2022-12-12T09:35:32.042Z,92
2022-12-12T09:36:32.039Z,92
2022-12-12T09:37:32.062Z,92
2022-12-12T09:38:32.080Z,92
2022-12-12T09:39:32.031Z,92
2022-12-12T09:40:32.075Z,92
2022-12-12T09:41:32.131Z,92
2022-12-12T09:42:32.053Z,92
2022-12-12T09:43:32.055Z,92
2022-12-12T09:44:32.054Z,92
2022-12-12T09:45:32.144Z,92
2022-12-12T09:46:32.114Z,92
2022-12-12T09:47:32.130Z,92
2022-12-12T09:48:32.031Z,92
2022-12-12T09:49:32.102Z,92
2022-12-12T09:50:32.070Z,92
2022-12-12T09:51:32.073Z,92
2022-12-12T09:52:32.075Z,92
2022-12-12T09:53:32.028Z,91
2022-12-12T09:54:32.120Z,91
2022-12-12T09:55:32.031Z,91
2022-12-12T09:56:32.113Z,91
2022-12-12T09:57:32.043Z,91
2022-12-12T09:58:32.053Z,91
2022-12-12T09:59:32.104Z,91
2022-12-12T10:00:32.194Z,91
2022-12-12T10:01:32.047Z,91
2022-12-12T10:02:32.108Z,91
2022-12-12T10:03:32.059Z,90
2022-12-12T10:04:32.076Z,90
2022-12-12T10:05:32.033Z,90
2022-12-12T10:06:37.774Z,90
2022-12-12T10:07:32.022Z,90
2022-12-12T10:08:32.109Z,90
2022-12-12T10:09:32.201Z,89
2022-12-12T10:10:32.116Z,89
2022-12-12T10:11:32.087Z,89
2022-12-12T10:12:32.080Z,89
2022-12-12T10:13:32.074Z,89
2022-12-12T10:14:32.100Z,89
2022-12-12T10:15:32.122Z,89
2022-12-12T10:16:32.101Z,89
2022-12-12T10:17:32.016Z,89
2022-12-12T10:18:32.041Z,88
2022-12-12T10:19:32.084Z,88
2022-12-12T10:20:32.056Z,88
2022-12-12T10:21:32.038Z,88
2022-12-12T10:22:32.057Z,88
2022-12-12T10:23:32.036Z,88
2022-12-12T10:24:32.028Z,88
2022-12-12T10:25:32.073Z,88
2022-12-12T10:26:32.076Z,88
2022-12-12T10:27:32.068Z,88
2022-12-12T10:28:32.051Z,88
2022-12-12T10:29:34.482Z,88
2022-12-12T10:30:32.067Z,88
2022-12-12T10:31:32.111Z,88
2022-12-12T10:32:32.024Z,88
2022-12-12T10:33:32.028Z,88
2022-12-12T10:34:32.117Z,88
2022-12-12T10:35:32.445Z,88
2022-12-12T10:36:32.048Z,87
2022-12-12T10:37:32.033Z,88
2022-12-12T10:38:32.106Z,88
2022-12-12T10:39:32.068Z,88
2022-12-12T10:40:32.063Z,88
2022-12-12T10:41:32.100Z,88
2022-12-12T10:42:32.052Z,88
2022-12-12T10:43:32.130Z,88
2022-12-12T10:44:32.063Z,88
2022-12-12T10:45:32.037Z,88
2022-12-12T10:46:32.263Z,88
2022-12-12T10:47:32.067Z,88
2022-12-12T10:48:32.094Z,88
2022-12-12T10:49:32.032Z,88
2022-12-12T10:50:32.053Z,88
2022-12-12T10:51:32.123Z,88
2022-12-12T10:52:32.034Z,88
2022-12-12T10:53:32.045Z,88
2022-12-12T10:54:32.061Z,88
2022-12-12T10:55:32.122Z,88
2022-12-12T10:56:31.993Z,88
2022-12-12T10:57:32.085Z,88
2022-12-12T10:58:32.061Z,88
2022-12-12T10:59:32.040Z,88
2022-12-12T11:00:32.050Z,88
2022-12-12T11:02:08.329Z,88
2022-12-12T11:02:32.296Z,88
2022-12-12T11:03:32.085Z,88
2022-12-12T11:04:32.075Z,88
2022-12-12T11:05:32.064Z,88
2022-12-12T11:06:32.047Z,88
2022-12-12T11:07:32.030Z,88
2022-12-12T11:08:32.183Z,88
2022-12-12T11:09:32.046Z,88
2022-12-12T11:10:34.659Z,88
2022-12-12T11:11:32.026Z,88
2022-12-12T11:12:32.069Z,88
2022-12-12T11:13:32.042Z,88
2022-12-12T11:14:32.161Z,88
2022-12-12T11:15:32.123Z,88
2022-12-12T11:16:32.133Z,88
2022-12-12T11:17:32.060Z,88
2022-12-12T11:18:32.040Z,88
2022-12-12T11:19:32.068Z,88
2022-12-12T11:20:32.061Z,88
2022-12-12T11:21:32.260Z,88
2022-12-12T11:22:32.054Z,88
2022-12-12T11:23:32.114Z,88
2022-12-12T11:24:32.085Z,88
2022-12-12T11:25:32.071Z,88
2022-12-12T11:26:32.018Z,88
2022-12-12T11:27:32.127Z,88
2022-12-12T11:28:32.037Z,88
2022-12-12T11:29:32.044Z,88
2022-12-12T11:30:32.032Z,88
2022-12-12T11:31:32.120Z,88
2022-12-12T11:32:32.032Z,88
2022-12-12T11:33:32.059Z,88
2022-12-12T11:34:34.080Z,88
2022-12-12T11:35:32.084Z,88
2022-12-12T11:36:32.037Z,88
2022-12-12T11:37:32.045Z,88
2022-12-12T11:38:32.048Z,88
2022-12-12T11:39:32.059Z,88
2022-12-12T11:40:32.141Z,88
2022-12-12T11:41:32.037Z,88
2022-12-12T11:42:32.085Z,88
2022-12-12T11:43:32.084Z,88
2022-12-12T11:44:32.039Z,88
2022-12-12T11:45:32.110Z,88
2022-12-12T11:46:32.021Z,88
2022-12-12T11:47:32.049Z,88
2022-12-12T11:48:32.052Z,88
2022-12-12T11:49:32.026Z,88
2022-12-12T11:50:32.001Z,88
2022-12-12T11:51:32.063Z,88
2022-12-12T11:52:32.035Z,88
2022-12-12T11:53:32.036Z,88
2022-12-12T11:54:32.049Z,88
2022-12-12T11:55:32.120Z,88
2022-12-12T11:56:32.021Z,88
2022-12-12T11:57:32.064Z,88
2022-12-12T11:58:32.041Z,88
2022-12-12T11:59:32.064Z,88
2022-12-12T12:00:32.043Z,89
2022-12-12T12:01:32.512Z,89
2022-12-12T12:02:32.054Z,89
2022-12-12T12:03:32.086Z,89
2022-12-12T12:04:32.098Z,89
2022-12-12T12:05:32.064Z,89
2022-12-12T12:06:32.041Z,89
2022-12-12T12:07:32.056Z,89
2022-12-12T12:08:32.176Z,89
2022-12-12T12:09:32.047Z,89
2022-12-12T12:10:32.036Z,89
2022-12-12T12:11:32.103Z,89
2022-12-12T12:12:32.045Z,89
2022-12-12T12:13:32.034Z,89
2022-12-12T12:14:31.998Z,89
2022-12-12T12:15:32.054Z,89
2022-12-12T12:16:32.065Z,89
2022-12-12T12:17:32.038Z,89
2022-12-12T12:18:32.012Z,89
2022-12-12T12:19:32.025Z,89
2022-12-12T12:20:32.078Z,89
2022-12-12T12:21:32.043Z,89
2022-12-12T12:22:32.079Z,89
2022-12-12T12:23:35.183Z,89
2022-12-12T12:24:32.114Z,89
2022-12-12T12:25:32.046Z,89
2022-12-12T12:26:32.054Z,89
2022-12-12T12:27:32.193Z,89
2022-12-12T12:28:32.070Z,89
2022-12-12T12:29:32.073Z,89
2022-12-12T12:30:32.137Z,89
2022-12-12T12:31:32.032Z,89
2022-12-12T12:32:32.138Z,88
2022-12-12T12:33:32.095Z,88
2022-12-12T12:34:32.140Z,88
2022-12-12T12:35:32.085Z,88
2022-12-12T12:36:32.057Z,88
2022-12-12T12:37:32.102Z,88
2022-12-12T12:38:32.072Z,88
2022-12-12T12:39:32.115Z,89
2022-12-12T12:40:32.050Z,89
2022-12-12T12:41:32.017Z,89
2022-12-12T12:42:32.048Z,89
2022-12-12T12:43:32.038Z,89
2022-12-12T12:44:32.051Z,89
2022-12-12T12:45:32.093Z,89
2022-12-12T12:46:32.098Z,89
2022-12-12T12:47:32.940Z,89
2022-12-12T12:48:36.832Z,89
2022-12-12T12:49:40.703Z,88
2022-12-12T12:50:44.786Z,88
2022-12-12T12:51:50.461Z,88
2022-12-12T12:52:52.802Z,88
2022-12-12T12:53:56.780Z,88
2022-12-12T12:55:00.847Z,88
2022-12-12T12:56:04.768Z,89
2022-12-12T12:57:08.786Z,89
2022-12-12T12:58:12.747Z,88
2022-12-12T12:59:16.772Z,88
2022-12-12T13:00:20.724Z,88
2022-12-12T13:01:24.848Z,88
2022-12-12T13:02:28.799Z,88
2022-12-12T13:03:32.057Z,88
2022-12-12T13:04:32.012Z,88
2022-12-12T13:05:32.066Z,88
2022-12-12T13:06:32.176Z,88
2022-12-12T13:07:34.935Z,88
2022-12-12T13:08:32.101Z,88
2022-12-12T13:09:32.060Z,88
2022-12-12T13:10:32.051Z,88
2022-12-12T13:11:32.060Z,88
2022-12-12T13:12:32.036Z,88
2022-12-12T13:13:32.062Z,88
2022-12-12T13:14:32.019Z,88
2022-12-12T13:15:32.223Z,87
2022-12-12T13:16:32.011Z,88
2022-12-12T13:17:32.045Z,87
2022-12-12T13:18:44.644Z,87
2022-12-12T13:19:32.050Z,87
2022-12-12T13:20:32.044Z,87
2022-12-12T13:21:32.090Z,87
2022-12-12T13:22:32.043Z,87
2022-12-12T13:23:32.076Z,87
2022-12-12T13:24:32.056Z,87
2022-12-12T13:25:32.037Z,87
2022-12-12T13:26:32.030Z,87
2022-12-12T13:27:32.003Z,87
2022-12-12T13:28:32.037Z,87
2022-12-12T13:29:32.021Z,87
2022-12-12T13:30:32.089Z,87
2022-12-12T13:31:32.058Z,87
2022-12-12T13:32:32.099Z,87
2022-12-12T13:33:32.072Z,87
2022-12-12T13:34:32.047Z,87
2022-12-12T13:35:32.035Z,87
2022-12-12T13:36:32.258Z,87
2022-12-12T13:37:32.032Z,87
2022-12-12T13:38:32.061Z,87
2022-12-12T13:39:32.037Z,87
2022-12-12T13:40:32.080Z,87
2022-12-12T13:41:31.997Z,87
2022-12-12T13:42:32.168Z,87
2022-12-12T13:43:31.998Z,87
2022-12-12T13:44:32.064Z,87
2022-12-12T13:45:32.015Z,87
2022-12-12T13:46:32.069Z,87
2022-12-12T13:47:31.996Z,87
2022-12-12T13:48:32.150Z,87
2022-12-12T13:49:32.038Z,87
2022-12-12T13:50:32.020Z,87
2022-12-12T13:51:32.081Z,87
2022-12-12T13:52:32.154Z,87
2022-12-12T13:53:32.075Z,87
2022-12-12T13:54:32.142Z,86
2022-12-12T13:55:32.032Z,86
2022-12-12T13:56:32.074Z,86
2022-12-12T13:57:32.025Z,86
2022-12-12T13:58:32.042Z,86
2022-12-12T13:59:32.029Z,86
2022-12-12T14:00:32.104Z,86
2022-12-12T14:01:32.158Z,86
2022-12-12T14:02:32.078Z,86
2022-12-12T14:03:32.029Z,86
2022-12-12T14:04:32.154Z,86
2022-12-12T14:05:32.017Z,86
2022-12-12T14:06:32.137Z,86
2022-12-12T14:07:32.028Z,86
2022-12-12T14:08:32.144Z,86
2022-12-12T14:09:47.150Z,86
2022-12-12T14:10:32.205Z,86
2022-12-12T14:11:32.020Z,86
2022-12-12T14:12:32.431Z,86
2022-12-12T14:13:32.016Z,86
2022-12-12T14:14:32.127Z,86
2022-12-12T14:15:32.127Z,86
2022-12-12T14:16:32.097Z,86
2022-12-12T14:17:36.885Z,86
2022-12-12T14:18:32.021Z,86